sensor_id;sensor_type;location;lat;lon;timestamp;P1;durP1;ratioP1;P2;durP2;ratioP2
48849;SDS011;63210;53.370;6.770;2022-11-20T00:01:06;30.33;;;16.75;;
48849;SDS011;63210;53.370;6.770;2022-11-20T00:03:32;30.02;;;16.95;;
48849;SDS011;63210;53.370;6.770;2022-11-20T00:06:01;23.30;;;13.57;;
48849;SDS011;63210;53.370;6.770;2022-11-20T00:08:26;22.73;;;13.63;;
48849;SDS011;63210;53.370;6.770;2022-11-20T00:10:51;19.00;;;12.82;;
48849;SDS011;63210;53.370;6.770;2022-11-20T00:13:17;21.48;;;12.40;;
48849;SDS011;63210;53.370;6.770;2022-11-20T00:15:42;18.75;;;11.13;;
48849;SDS011;63210;53.370;6.770;2022-11-20T00:18:07;18.05;;;11.07;;
48849;SDS011;63210;53.370;6.770;2022-11-20T00:20:32;16.90;;;10.23;;
48849;SDS011;63210;53.370;6.770;2022-11-20T00:22:58;17.20;;;10.05;;
48849;SDS011;63210;53.370;6.770;2022-11-20T00:25:23;17.80;;;10.15;;
48849;SDS011;63210;53.370;6.770;2022-11-20T00:27:48;16.90;;;10.57;;
48849;SDS011;63210;53.370;6.770;2022-11-20T00:30:16;16.77;;;10.07;;
48849;SDS011;63210;53.370;6.770;2022-11-20T00:32:42;15.63;;;9.60;;
48849;SDS011;63210;53.370;6.770;2022-11-20T00:35:07;16.35;;;10.27;;
48849;SDS011;63210;53.370;6.770;2022-11-20T00:37:35;14.68;;;9.85;;
48849;SDS011;63210;53.370;6.770;2022-11-20T00:40:01;15.10;;;10.60;;
48849;SDS011;63210;53.370;6.770;2022-11-20T00:42:26;20.33;;;12.15;;
48849;SDS011;63210;53.370;6.770;2022-11-20T00:44:51;16.95;;;11.32;;
48849;SDS011;63210;53.370;6.770;2022-11-20T00:47:16;17.02;;;10.70;;
48849;SDS011;63210;53.370;6.770;2022-11-20T00:49:42;13.85;;;8.38;;
48849;SDS011;63210;53.370;6.770;2022-11-20T00:52:07;16.13;;;9.65;;
48849;SDS011;63210;53.370;6.770;2022-11-20T00:54:32;15.82;;;9.32;;
48849;SDS011;63210;53.370;6.770;2022-11-20T00:56:57;17.08;;;10.50;;
48849;SDS011;63210;53.370;6.770;2022-11-20T00:59:23;13.85;;;9.77;;
48849;SDS011;63210;53.370;6.770;2022-11-20T01:01:48;13.20;;;9.10;;
48849;SDS011;63210;53.370;6.770;2022-11-20T01:04:13;14.20;;;9.45;;
48849;SDS011;63210;53.370;6.770;2022-11-20T01:06:39;17.65;;;9.02;;
48849;SDS011;63210;53.370;6.770;2022-11-20T01:09:09;16.70;;;9.30;;
48849;SDS011;63210;53.370;6.770;2022-11-20T01:11:36;13.68;;;9.10;;
48849;SDS011;63210;53.370;6.770;2022-11-20T01:14:03;13.30;;;9.43;;
48849;SDS011;63210;53.370;6.770;2022-11-20T01:16:30;14.52;;;8.15;;
48849;SDS011;63210;53.370;6.770;2022-11-20T01:18:58;13.45;;;8.27;;
48849;SDS011;63210;53.370;6.770;2022-11-20T01:21:24;13.48;;;8.68;;
48849;SDS011;63210;53.370;6.770;2022-11-20T01:23:50;12.60;;;8.30;;
48849;SDS011;63210;53.370;6.770;2022-11-20T01:26:20;12.57;;;7.80;;
48849;SDS011;63210;53.370;6.770;2022-11-20T01:28:45;11.75;;;7.85;;
48849;SDS011;63210;53.370;6.770;2022-11-20T01:31:12;14.98;;;8.48;;
48849;SDS011;63210;53.370;6.770;2022-11-20T01:33:38;14.00;;;8.27;;
48849;SDS011;63210;53.370;6.770;2022-11-20T01:36:05;11.98;;;8.02;;
48849;SDS011;63210;53.370;6.770;2022-11-20T01:38:30;14.63;;;7.93;;
48849;SDS011;63210;53.370;6.770;2022-11-20T01:40:55;11.45;;;7.68;;
48849;SDS011;63210;53.370;6.770;2022-11-20T01:43:21;15.07;;;8.57;;
48849;SDS011;63210;53.370;6.770;2022-11-20T01:45:57;15.30;;;8.98;;
48849;SDS011;63210;53.370;6.770;2022-11-20T01:48:23;15.20;;;8.52;;
48849;SDS011;63210;53.370;6.770;2022-11-20T01:50:50;13.30;;;8.75;;
48849;SDS011;63210;53.370;6.770;2022-11-20T01:53:17;13.35;;;8.73;;
48849;SDS011;63210;53.370;6.770;2022-11-20T01:55:45;14.38;;;8.45;;
48849;SDS011;63210;53.370;6.770;2022-11-20T01:58:11;13.75;;;9.43;;
48849;SDS011;63210;53.370;6.770;2022-11-20T02:00:37;14.57;;;8.65;;
48849;SDS011;63210;53.370;6.770;2022-11-20T02:03:05;14.55;;;8.85;;
48849;SDS011;63210;53.370;6.770;2022-11-20T02:05:36;13.82;;;8.93;;
48849;SDS011;63210;53.370;6.770;2022-11-20T02:08:02;16.05;;;9.75;;
48849;SDS011;63210;53.370;6.770;2022-11-20T02:10:27;13.45;;;7.93;;
48849;SDS011;63210;53.370;6.770;2022-11-20T02:12:53;13.40;;;8.23;;
48849;SDS011;63210;53.370;6.770;2022-11-20T02:15:37;12.32;;;8.10;;
48849;SDS011;63210;53.370;6.770;2022-11-20T02:18:02;12.50;;;8.40;;
48849;SDS011;63210;53.370;6.770;2022-11-20T02:20:28;12.13;;;7.68;;
48849;SDS011;63210;53.370;6.770;2022-11-20T02:25:21;12.18;;;8.38;;
48849;SDS011;63210;53.370;6.770;2022-11-20T02:27:48;16.55;;;8.60;;
48849;SDS011;63210;53.370;6.770;2022-11-20T02:30:15;13.05;;;8.85;;
48849;SDS011;63210;53.370;6.770;2022-11-20T02:32:41;13.40;;;8.98;;
48849;SDS011;63210;53.370;6.770;2022-11-20T02:35:48;14.02;;;8.50;;
48849;SDS011;63210;53.370;6.770;2022-11-20T02:37:56;16.90;;;9.43;;
48849;SDS011;63210;53.370;6.770;2022-11-20T02:40:21;15.68;;;10.02;;
48849;SDS011;63210;53.370;6.770;2022-11-20T02:42:47;14.10;;;9.68;;
48849;SDS011;63210;53.370;6.770;2022-11-20T02:45:14;14.82;;;9.95;;
48849;SDS011;63210;53.370;6.770;2022-11-20T02:47:39;15.32;;;10.20;;
48849;SDS011;63210;53.370;6.770;2022-11-20T02:50:04;12.65;;;9.07;;
48849;SDS011;63210;53.370;6.770;2022-11-20T02:52:30;18.23;;;10.82;;
48849;SDS011;63210;53.370;6.770;2022-11-20T02:54:55;17.20;;;9.27;;
48849;SDS011;63210;53.370;6.770;2022-11-20T02:57:21;17.27;;;10.40;;
48849;SDS011;63210;53.370;6.770;2022-11-20T02:59:46;15.77;;;10.13;;
48849;SDS011;63210;53.370;6.770;2022-11-20T03:02:11;17.17;;;11.52;;
48849;SDS011;63210;53.370;6.770;2022-11-20T03:04:36;15.00;;;9.35;;
48849;SDS011;63210;53.370;6.770;2022-11-20T03:07:02;13.48;;;9.10;;
48849;SDS011;63210;53.370;6.770;2022-11-20T03:09:27;14.15;;;8.75;;
48849;SDS011;63210;53.370;6.770;2022-11-20T03:11:53;15.82;;;9.55;;
48849;SDS011;63210;53.370;6.770;2022-11-20T03:14:18;14.55;;;9.13;;
48849;SDS011;63210;53.370;6.770;2022-11-20T03:16:43;14.43;;;9.55;;
48849;SDS011;63210;53.370;6.770;2022-11-20T03:19:09;14.38;;;9.65;;
48849;SDS011;63210;53.370;6.770;2022-11-20T03:21:34;16.17;;;9.70;;
48849;SDS011;63210;53.370;6.770;2022-11-20T03:24:00;13.85;;;9.35;;
48849;SDS011;63210;53.370;6.770;2022-11-20T03:26:26;14.50;;;8.65;;
48849;SDS011;63210;53.370;6.770;2022-11-20T03:28:55;12.43;;;8.65;;
48849;SDS011;63210;53.370;6.770;2022-11-20T03:31:22;13.82;;;8.73;;
48849;SDS011;63210;53.370;6.770;2022-11-20T03:33:48;16.67;;;9.60;;
48849;SDS011;63210;53.370;6.770;2022-11-20T03:36:13;14.98;;;8.98;;
48849;SDS011;63210;53.370;6.770;2022-11-20T03:38:39;14.23;;;9.27;;
48849;SDS011;63210;53.370;6.770;2022-11-20T03:41:05;12.73;;;8.40;;
48849;SDS011;63210;53.370;6.770;2022-11-20T03:43:31;12.57;;;8.88;;
48849;SDS011;63210;53.370;6.770;2022-11-20T03:45:56;13.18;;;8.50;;
48849;SDS011;63210;53.370;6.770;2022-11-20T03:48:22;15.15;;;9.32;;
48849;SDS011;63210;53.370;6.770;2022-11-20T03:50:47;14.23;;;9.05;;
48849;SDS011;63210;53.370;6.770;2022-11-20T03:53:14;14.18;;;8.68;;
48849;SDS011;63210;53.370;6.770;2022-11-20T03:55:39;14.43;;;9.02;;
48849;SDS011;63210;53.370;6.770;2022-11-20T03:58:08;13.82;;;8.73;;
48849;SDS011;63210;53.370;6.770;2022-11-20T04:00:33;13.02;;;8.80;;
48849;SDS011;63210;53.370;6.770;2022-11-20T04:02:59;13.52;;;9.43;;
48849;SDS011;63210;53.370;6.770;2022-11-20T04:05:24;13.30;;;9.20;;
48849;SDS011;63210;53.370;6.770;2022-11-20T04:07:50;15.27;;;9.50;;
48849;SDS011;63210;53.370;6.770;2022-11-20T04:10:15;16.05;;;9.82;;
48849;SDS011;63210;53.370;6.770;2022-11-20T04:12:40;14.18;;;9.45;;
48849;SDS011;63210;53.370;6.770;2022-11-20T04:15:06;13.18;;;9.15;;
48849;SDS011;63210;53.370;6.770;2022-11-20T04:17:31;12.95;;;8.73;;
48849;SDS011;63210;53.370;6.770;2022-11-20T04:19:56;13.15;;;9.25;;
48849;SDS011;63210;53.370;6.770;2022-11-20T04:22:22;13.57;;;8.32;;
48849;SDS011;63210;53.370;6.770;2022-11-20T04:24:50;12.50;;;8.38;;
48849;SDS011;63210;53.370;6.770;2022-11-20T04:27:17;13.35;;;9.07;;
48849;SDS011;63210;53.370;6.770;2022-11-20T04:29:42;15.65;;;9.63;;
48849;SDS011;63210;53.370;6.770;2022-11-20T04:32:07;12.45;;;8.68;;
48849;SDS011;63210;53.370;6.770;2022-11-20T04:34:32;13.98;;;8.80;;
48849;SDS011;63210;53.370;6.770;2022-11-20T04:36:58;13.75;;;9.15;;
48849;SDS011;63210;53.370;6.770;2022-11-20T04:39:23;13.30;;;9.32;;
48849;SDS011;63210;53.370;6.770;2022-11-20T04:41:48;13.02;;;8.98;;
48849;SDS011;63210;53.370;6.770;2022-11-20T04:44:34;13.70;;;9.48;;
48849;SDS011;63210;53.370;6.770;2022-11-20T04:46:59;12.43;;;9.07;;
48849;SDS011;63210;53.370;6.770;2022-11-20T04:49:24;14.50;;;8.90;;
48849;SDS011;63210;53.370;6.770;2022-11-20T04:51:52;12.10;;;8.18;;
48849;SDS011;63210;53.370;6.770;2022-11-20T04:54:18;16.50;;;10.73;;
48849;SDS011;63210;53.370;6.770;2022-11-20T04:56:47;13.13;;;9.00;;
48849;SDS011;63210;53.370;6.770;2022-11-20T04:59:12;15.52;;;9.18;;
48849;SDS011;63210;53.370;6.770;2022-11-20T05:01:38;14.82;;;9.85;;
48849;SDS011;63210;53.370;6.770;2022-11-20T05:04:03;14.82;;;9.07;;
48849;SDS011;63210;53.370;6.770;2022-11-20T05:06:28;14.45;;;9.10;;
48849;SDS011;63210;53.370;6.770;2022-11-20T05:08:53;13.60;;;9.07;;
48849;SDS011;63210;53.370;6.770;2022-11-20T05:11:19;13.73;;;9.45;;
48849;SDS011;63210;53.370;6.770;2022-11-20T05:13:45;16.20;;;8.82;;
48849;SDS011;63210;53.370;6.770;2022-11-20T05:16:11;15.65;;;9.85;;
48849;SDS011;63210;53.370;6.770;2022-11-20T05:18:37;15.35;;;10.15;;
48849;SDS011;63210;53.370;6.770;2022-11-20T05:21:03;13.50;;;9.38;;
48849;SDS011;63210;53.370;6.770;2022-11-20T05:23:30;13.95;;;9.25;;
48849;SDS011;63210;53.370;6.770;2022-11-20T05:25:56;15.63;;;10.50;;
48849;SDS011;63210;53.370;6.770;2022-11-20T05:28:22;14.63;;;9.73;;
48849;SDS011;63210;53.370;6.770;2022-11-20T05:30:48;18.38;;;9.82;;
48849;SDS011;63210;53.370;6.770;2022-11-20T05:33:13;12.90;;;8.75;;
48849;SDS011;63210;53.370;6.770;2022-11-20T05:35:39;14.82;;;9.27;;
48849;SDS011;63210;53.370;6.770;2022-11-20T05:38:04;14.50;;;9.48;;
48849;SDS011;63210;53.370;6.770;2022-11-20T05:40:29;14.30;;;8.57;;
48849;SDS011;63210;53.370;6.770;2022-11-20T05:42:55;12.52;;;8.48;;
48849;SDS011;63210;53.370;6.770;2022-11-20T05:45:20;12.68;;;8.90;;
48849;SDS011;63210;53.370;6.770;2022-11-20T05:47:45;14.23;;;9.02;;
48849;SDS011;63210;53.370;6.770;2022-11-20T05:50:10;14.18;;;9.20;;
48849;SDS011;63210;53.370;6.770;2022-11-20T05:52:36;14.68;;;9.27;;
48849;SDS011;63210;53.370;6.770;2022-11-20T05:55:01;15.15;;;9.88;;
48849;SDS011;63210;53.370;6.770;2022-11-20T05:57:26;15.77;;;9.57;;
48849;SDS011;63210;53.370;6.770;2022-11-20T05:59:52;13.52;;;9.07;;
48849;SDS011;63210;53.370;6.770;2022-11-20T06:02:17;13.75;;;8.82;;
48849;SDS011;63210;53.370;6.770;2022-11-20T06:04:42;14.20;;;9.13;;
48849;SDS011;63210;53.370;6.770;2022-11-20T06:07:08;12.93;;;9.38;;
48849;SDS011;63210;53.370;6.770;2022-11-20T06:09:33;16.23;;;10.65;;
48849;SDS011;63210;53.370;6.770;2022-11-20T06:11:58;14.73;;;9.57;;
48849;SDS011;63210;53.370;6.770;2022-11-20T06:14:23;14.25;;;9.20;;
48849;SDS011;63210;53.370;6.770;2022-11-20T06:16:49;14.93;;;10.20;;
48849;SDS011;63210;53.370;6.770;2022-11-20T06:19:14;14.32;;;9.02;;
48849;SDS011;63210;53.370;6.770;2022-11-20T06:21:40;13.85;;;9.18;;
48849;SDS011;63210;53.370;6.770;2022-11-20T06:24:05;16.52;;;10.05;;
48849;SDS011;63210;53.370;6.770;2022-11-20T06:26:31;14.25;;;9.52;;
48849;SDS011;63210;53.370;6.770;2022-11-20T06:28:56;12.90;;;8.70;;
48849;SDS011;63210;53.370;6.770;2022-11-20T06:31:23;13.70;;;8.98;;
48849;SDS011;63210;53.370;6.770;2022-11-20T06:33:49;11.98;;;8.77;;
48849;SDS011;63210;53.370;6.770;2022-11-20T06:36:15;15.13;;;8.73;;
48849;SDS011;63210;53.370;6.770;2022-11-20T06:38:42;13.25;;;8.35;;
48849;SDS011;63210;53.370;6.770;2022-11-20T06:41:10;12.30;;;8.50;;
48849;SDS011;63210;53.370;6.770;2022-11-20T06:43:35;13.52;;;8.95;;
48849;SDS011;63210;53.370;6.770;2022-11-20T06:46:00;15.00;;;9.07;;
48849;SDS011;63210;53.370;6.770;2022-11-20T06:48:26;13.05;;;8.50;;
48849;SDS011;63210;53.370;6.770;2022-11-20T06:50:52;13.82;;;8.10;;
48849;SDS011;63210;53.370;6.770;2022-11-20T06:53:17;12.20;;;7.75;;
48849;SDS011;63210;53.370;6.770;2022-11-20T06:55:43;12.15;;;8.10;;
48849;SDS011;63210;53.370;6.770;2022-11-20T06:58:09;15.00;;;9.10;;
48849;SDS011;63210;53.370;6.770;2022-11-20T07:00:34;12.18;;;8.55;;
48849;SDS011;63210;53.370;6.770;2022-11-20T07:03:02;12.53;;;8.33;;
48849;SDS011;63210;53.370;6.770;2022-11-20T07:05:27;10.70;;;7.78;;
48849;SDS011;63210;53.370;6.770;2022-11-20T07:07:55;12.67;;;8.10;;
48849;SDS011;63210;53.370;6.770;2022-11-20T07:10:20;14.05;;;8.35;;
48849;SDS011;63210;53.370;6.770;2022-11-20T07:12:48;13.77;;;7.93;;
48849;SDS011;63210;53.370;6.770;2022-11-20T07:15:14;11.10;;;8.07;;
48849;SDS011;63210;53.370;6.770;2022-11-20T07:17:39;14.30;;;9.93;;
48849;SDS011;63210;53.370;6.770;2022-11-20T07:20:04;16.00;;;9.38;;
48849;SDS011;63210;53.370;6.770;2022-11-20T07:22:29;13.57;;;9.57;;
48849;SDS011;63210;53.370;6.770;2022-11-20T07:24:58;12.13;;;8.68;;
48849;SDS011;63210;53.370;6.770;2022-11-20T07:27:23;14.68;;;9.48;;
48849;SDS011;63210;53.370;6.770;2022-11-20T07:29:48;14.10;;;9.07;;
48849;SDS011;63210;53.370;6.770;2022-11-20T07:32:14;14.07;;;9.50;;
48849;SDS011;63210;53.370;6.770;2022-11-20T07:34:39;15.27;;;9.60;;
48849;SDS011;63210;53.370;6.770;2022-11-20T07:37:04;16.08;;;10.18;;
48849;SDS011;63210;53.370;6.770;2022-11-20T07:39:29;15.27;;;9.40;;
48849;SDS011;63210;53.370;6.770;2022-11-20T07:41:55;15.23;;;10.20;;
48849;SDS011;63210;53.370;6.770;2022-11-20T07:44:20;18.80;;;10.20;;
48849;SDS011;63210;53.370;6.770;2022-11-20T07:46:46;16.45;;;10.85;;
48849;SDS011;63210;53.370;6.770;2022-11-20T07:49:11;17.13;;;10.50;;
48849;SDS011;63210;53.370;6.770;2022-11-20T07:51:36;16.77;;;10.20;;
48849;SDS011;63210;53.370;6.770;2022-11-20T07:54:01;15.48;;;10.00;;
48849;SDS011;63210;53.370;6.770;2022-11-20T07:56:27;15.20;;;10.15;;
48849;SDS011;63210;53.370;6.770;2022-11-20T07:58:52;16.52;;;10.40;;
48849;SDS011;63210;53.370;6.770;2022-11-20T08:01:17;16.60;;;10.80;;
48849;SDS011;63210;53.370;6.770;2022-11-20T08:03:43;19.05;;;10.80;;
48849;SDS011;63210;53.370;6.770;2022-11-20T08:06:08;15.85;;;10.50;;
48849;SDS011;63210;53.370;6.770;2022-11-20T08:08:36;16.08;;;10.20;;
48849;SDS011;63210;53.370;6.770;2022-11-20T08:11:04;15.70;;;10.43;;
48849;SDS011;63210;53.370;6.770;2022-11-20T08:13:48;16.40;;;10.15;;
48849;SDS011;63210;53.370;6.770;2022-11-20T08:16:32;15.93;;;10.30;;
48849;SDS011;63210;53.370;6.770;2022-11-20T08:18:57;15.45;;;10.15;;
48849;SDS011;63210;53.370;6.770;2022-11-20T08:21:22;17.38;;;10.68;;
48849;SDS011;63210;53.370;6.770;2022-11-20T08:23:48;15.68;;;9.88;;
48849;SDS011;63210;53.370;6.770;2022-11-20T08:26:14;14.32;;;9.88;;
48849;SDS011;63210;53.370;6.770;2022-11-20T08:28:39;18.00;;;9.77;;
48849;SDS011;63210;53.370;6.770;2022-11-20T08:31:04;16.55;;;9.98;;
48849;SDS011;63210;53.370;6.770;2022-11-20T08:33:30;16.40;;;8.90;;
48849;SDS011;63210;53.370;6.770;2022-11-20T08:36:01;14.25;;;9.80;;
48849;SDS011;63210;53.370;6.770;2022-11-20T08:38:26;15.82;;;9.55;;
48849;SDS011;63210;53.370;6.770;2022-11-20T08:40:56;15.98;;;10.15;;
48849;SDS011;63210;53.370;6.770;2022-11-20T08:43:40;16.27;;;10.48;;
48849;SDS011;63210;53.370;6.770;2022-11-20T08:46:05;16.30;;;9.48;;
48849;SDS011;63210;53.370;6.770;2022-11-20T08:48:31;15.40;;;9.60;;
48849;SDS011;63210;53.370;6.770;2022-11-20T08:50:59;16.40;;;9.80;;
48849;SDS011;63210;53.370;6.770;2022-11-20T08:53:24;15.05;;;9.57;;
48849;SDS011;63210;53.370;6.770;2022-11-20T08:55:49;15.13;;;10.25;;
48849;SDS011;63210;53.370;6.770;2022-11-20T08:58:15;12.23;;;7.75;;
48849;SDS011;63210;53.370;6.770;2022-11-20T09:00:40;11.95;;;7.78;;
48849;SDS011;63210;53.370;6.770;2022-11-20T09:03:05;12.00;;;8.65;;
48849;SDS011;63210;53.370;6.770;2022-11-20T09:05:31;15.98;;;7.65;;
48849;SDS011;63210;53.370;6.770;2022-11-20T09:07:56;10.48;;;7.25;;
48849;SDS011;63210;53.370;6.770;2022-11-20T09:10:22;10.60;;;7.22;;
48849;SDS011;63210;53.370;6.770;2022-11-20T09:13:06;11.38;;;7.65;;
48849;SDS011;63210;53.370;6.770;2022-11-20T09:15:55;10.88;;;7.75;;
48849;SDS011;63210;53.370;6.770;2022-11-20T09:18:31;11.23;;;7.13;;
48849;SDS011;63210;53.370;6.770;2022-11-20T09:21:06;9.35;;;6.82;;
48849;SDS011;63210;53.370;6.770;2022-11-20T09:23:45;11.00;;;7.35;;
48849;SDS011;63210;53.370;6.770;2022-11-20T09:26:26;7.87;;;5.50;;
48849;SDS011;63210;53.370;6.770;2022-11-20T09:29:00;9.48;;;6.32;;
48849;SDS011;63210;53.370;6.770;2022-11-20T10:10:57;9.15;;;6.28;;
48849;SDS011;63210;53.370;6.770;2022-11-20T10:13:29;9.43;;;6.47;;
48849;SDS011;63210;53.370;6.770;2022-11-20T10:29:59;12.30;;;8.25;;
48849;SDS011;63210;53.370;6.770;2022-11-20T10:35:36;12.32;;;9.07;;
48849;SDS011;63210;53.370;6.770;2022-11-20T10:44:36;13.50;;;8.40;;
48849;SDS011;63210;53.370;6.770;2022-11-20T10:47:30;11.93;;;9.07;;
48849;SDS011;63210;53.370;6.770;2022-11-20T10:50:47;17.25;;;9.10;;
48849;SDS011;63210;53.370;6.770;2022-11-20T11:00:40;16.63;;;9.13;;
48849;SDS011;63210;53.370;6.770;2022-11-20T11:03:37;14.80;;;10.05;;
48849;SDS011;63210;53.370;6.770;2022-11-20T11:06:15;14.57;;;9.45;;
48849;SDS011;63210;53.370;6.770;2022-11-20T11:21:30;14.35;;;8.65;;
48849;SDS011;63210;53.370;6.770;2022-11-20T11:24:20;13.15;;;8.38;;
48849;SDS011;63210;53.370;6.770;2022-11-20T11:27:01;13.38;;;8.68;;
48849;SDS011;63210;53.370;6.770;2022-11-20T11:29:34;12.63;;;8.05;;
48849;SDS011;63210;53.370;6.770;2022-11-20T11:32:14;11.95;;;8.25;;
48849;SDS011;63210;53.370;6.770;2022-11-20T11:34:40;12.73;;;8.40;;
48849;SDS011;63210;53.370;6.770;2022-11-20T11:37:23;12.10;;;8.88;;
48849;SDS011;63210;53.370;6.770;2022-11-20T11:39:53;11.02;;;7.65;;
48849;SDS011;63210;53.370;6.770;2022-11-20T11:45:13;12.45;;;8.68;;
48849;SDS011;63210;53.370;6.770;2022-11-20T11:47:47;11.27;;;8.68;;
48849;SDS011;63210;53.370;6.770;2022-11-20T11:50:23;11.68;;;8.93;;
48849;SDS011;63210;53.370;6.770;2022-11-20T11:57:57;12.23;;;8.57;;
48849;SDS011;63210;53.370;6.770;2022-11-20T12:00:24;14.18;;;8.35;;
48849;SDS011;63210;53.370;6.770;2022-11-20T12:02:55;13.00;;;8.90;;
48849;SDS011;63210;53.370;6.770;2022-11-20T12:15:44;12.15;;;7.85;;
48849;SDS011;63210;53.370;6.770;2022-11-20T12:18:23;10.73;;;7.13;;
48849;SDS011;63210;53.370;6.770;2022-11-20T12:29:17;10.88;;;7.45;;
48849;SDS011;63210;53.370;6.770;2022-11-20T12:38:19;9.40;;;7.55;;
48849;SDS011;63210;53.370;6.770;2022-11-20T12:43:28;10.40;;;7.65;;
48849;SDS011;63210;53.370;6.770;2022-11-20T12:46:24;11.52;;;7.85;;
48849;SDS011;63210;53.370;6.770;2022-11-20T12:54:40;11.82;;;8.15;;
48849;SDS011;63210;53.370;6.770;2022-11-20T13:00:07;11.82;;;7.63;;
48849;SDS011;63210;53.370;6.770;2022-11-20T13:05:33;9.52;;;6.55;;
48849;SDS011;63210;53.370;6.770;2022-11-20T13:08:02;9.65;;;6.78;;
48849;SDS011;63210;53.370;6.770;2022-11-20T13:10:54;9.07;;;6.60;;
48849;SDS011;63210;53.370;6.770;2022-11-20T13:13:25;12.45;;;6.70;;
48849;SDS011;63210;53.370;6.770;2022-11-20T13:15:55;9.80;;;6.75;;
48849;SDS011;63210;53.370;6.770;2022-11-20T13:18:30;9.68;;;7.53;;
48849;SDS011;63210;53.370;6.770;2022-11-20T13:24:49;9.32;;;6.93;;
48849;SDS011;63210;53.370;6.770;2022-11-20T13:27:21;10.35;;;7.45;;
48849;SDS011;63210;53.370;6.770;2022-11-20T13:30:12;11.32;;;7.75;;
48849;SDS011;63210;53.370;6.770;2022-11-20T13:32:55;12.02;;;8.52;;
48849;SDS011;63210;53.370;6.770;2022-11-20T13:35:31;11.32;;;8.15;;
48849;SDS011;63210;53.370;6.770;2022-11-20T13:38:04;11.63;;;7.82;;
48849;SDS011;63210;53.370;6.770;2022-11-20T13:40:30;12.75;;;7.65;;
48849;SDS011;63210;53.370;6.770;2022-11-20T13:43:18;10.80;;;7.45;;
48849;SDS011;63210;53.370;6.770;2022-11-20T13:45:53;9.85;;;7.00;;
48849;SDS011;63210;53.370;6.770;2022-11-20T13:48:19;10.70;;;7.05;;
48849;SDS011;63210;53.370;6.770;2022-11-20T13:50:56;11.27;;;7.80;;
48849;SDS011;63210;53.370;6.770;2022-11-20T13:56:05;10.40;;;7.20;;
48849;SDS011;63210;53.370;6.770;2022-11-20T14:01:20;12.23;;;7.85;;
48849;SDS011;63210;53.370;6.770;2022-11-20T14:03:48;10.05;;;7.32;;
48849;SDS011;63210;53.370;6.770;2022-11-20T14:06:16;10.60;;;7.13;;
48849;SDS011;63210;53.370;6.770;2022-11-20T14:08:47;11.10;;;7.28;;
48849;SDS011;63210;53.370;6.770;2022-11-20T14:13:39;9.82;;;6.78;;
48849;SDS011;63210;53.370;6.770;2022-11-20T14:16:04;11.20;;;6.93;;
48849;SDS011;63210;53.370;6.770;2022-11-20T14:18:30;8.93;;;6.20;;
48849;SDS011;63210;53.370;6.770;2022-11-20T14:21:00;9.75;;;6.90;;
48849;SDS011;63210;53.370;6.770;2022-11-20T14:23:28;7.88;;;5.65;;
48849;SDS011;63210;53.370;6.770;2022-11-20T14:26:11;7.53;;;5.30;;
48849;SDS011;63210;53.370;6.770;2022-11-20T14:28:40;7.97;;;5.38;;
48849;SDS011;63210;53.370;6.770;2022-11-20T14:31:08;7.05;;;5.07;;
48849;SDS011;63210;53.370;6.770;2022-11-20T14:34:15;7.20;;;5.15;;
48849;SDS011;63210;53.370;6.770;2022-11-20T14:36:42;6.90;;;4.97;;
48849;SDS011;63210;53.370;6.770;2022-11-20T14:39:09;8.15;;;5.90;;
48849;SDS011;63210;53.370;6.770;2022-11-20T14:41:55;8.90;;;6.35;;
48849;SDS011;63210;53.370;6.770;2022-11-20T14:44:31;16.80;;;9.95;;
48849;SDS011;63210;53.370;6.770;2022-11-20T14:47:34;13.00;;;9.35;;
48849;SDS011;63210;53.370;6.770;2022-11-20T14:50:07;12.60;;;9.23;;
48849;SDS011;63210;53.370;6.770;2022-11-20T14:52:49;10.50;;;8.02;;
48849;SDS011;63210;53.370;6.770;2022-11-20T14:58:18;12.10;;;8.13;;
48849;SDS011;63210;53.370;6.770;2022-11-20T15:01:53;13.38;;;8.18;;
48849;SDS011;63210;53.370;6.770;2022-11-20T15:03:40;13.52;;;8.38;;
48849;SDS011;63210;53.370;6.770;2022-11-20T15:06:11;12.60;;;8.52;;
48849;SDS011;63210;53.370;6.770;2022-11-20T15:08:50;11.15;;;7.97;;
48849;SDS011;63210;53.370;6.770;2022-11-20T15:11:34;10.20;;;7.20;;
48849;SDS011;63210;53.370;6.770;2022-11-20T15:14:03;10.18;;;6.90;;
48849;SDS011;63210;53.370;6.770;2022-11-20T15:16:41;10.55;;;6.90;;
48849;SDS011;63210;53.370;6.770;2022-11-20T15:22:13;10.75;;;6.60;;
48849;SDS011;63210;53.370;6.770;2022-11-20T15:24:41;6.88;;;5.75;;
48849;SDS011;63210;53.370;6.770;2022-11-20T15:27:17;10.30;;;6.75;;
48849;SDS011;63210;53.370;6.770;2022-11-20T15:30:01;8.15;;;5.78;;
48849;SDS011;63210;53.370;6.770;2022-11-20T15:32:36;7.93;;;5.88;;
48849;SDS011;63210;53.370;6.770;2022-11-20T15:35:13;9.65;;;6.70;;
48849;SDS011;63210;53.370;6.770;2022-11-20T15:37:39;8.38;;;6.05;;
48849;SDS011;63210;53.370;6.770;2022-11-20T15:40:11;7.97;;;5.55;;
48849;SDS011;63210;53.370;6.770;2022-11-20T15:42:40;8.60;;;6.20;;
48849;SDS011;63210;53.370;6.770;2022-11-20T15:45:25;7.82;;;5.68;;
48849;SDS011;63210;53.370;6.770;2022-11-20T15:47:50;7.55;;;5.88;;
48849;SDS011;63210;53.370;6.770;2022-11-20T15:50:16;9.88;;;6.80;;
48849;SDS011;63210;53.370;6.770;2022-11-20T15:52:42;7.57;;;5.70;;
48849;SDS011;63210;53.370;6.770;2022-11-20T15:55:16;10.05;;;7.20;;
48849;SDS011;63210;53.370;6.770;2022-11-20T15:57:44;12.93;;;8.32;;
48849;SDS011;63210;53.370;6.770;2022-11-20T16:00:10;10.80;;;7.97;;
48849;SDS011;63210;53.370;6.770;2022-11-20T16:02:35;11.02;;;7.38;;
48849;SDS011;63210;53.370;6.770;2022-11-20T16:05:03;10.18;;;7.28;;
48849;SDS011;63210;53.370;6.770;2022-11-20T16:07:32;9.73;;;6.32;;
48849;SDS011;63210;53.370;6.770;2022-11-20T16:09:57;9.05;;;6.30;;
48849;SDS011;63210;53.370;6.770;2022-11-20T16:12:40;7.38;;;5.60;;
48849;SDS011;63210;53.370;6.770;2022-11-20T16:15:35;6.10;;;4.88;;
48849;SDS011;63210;53.370;6.770;2022-11-20T16:20:58;8.95;;;5.45;;
48849;SDS011;63210;53.370;6.770;2022-11-20T16:23:26;8.80;;;6.13;;
48849;SDS011;63210;53.370;6.770;2022-11-20T16:25:55;9.07;;;6.05;;
48849;SDS011;63210;53.370;6.770;2022-11-20T16:28:41;8.23;;;6.03;;
48849;SDS011;63210;53.370;6.770;2022-11-20T16:31:15;8.50;;;5.78;;
48849;SDS011;63210;53.370;6.770;2022-11-20T16:34:08;8.98;;;5.95;;
48849;SDS011;63210;53.370;6.770;2022-11-20T16:36:55;8.93;;;6.00;;
48849;SDS011;63210;53.370;6.770;2022-11-20T16:39:24;8.70;;;6.50;;
48849;SDS011;63210;53.370;6.770;2022-11-20T16:42:00;9.00;;;6.30;;
48849;SDS011;63210;53.370;6.770;2022-11-20T16:44:31;10.02;;;7.05;;
48849;SDS011;63210;53.370;6.770;2022-11-20T16:46:59;11.15;;;7.18;;
48849;SDS011;63210;53.370;6.770;2022-11-20T16:49:33;23.60;;;13.95;;
48849;SDS011;63210;53.370;6.770;2022-11-20T16:52:12;27.27;;;16.20;;
48849;SDS011;63210;53.370;6.770;2022-11-20T16:57:20;16.08;;;11.50;;
48849;SDS011;63210;53.370;6.770;2022-11-20T16:59:56;19.73;;;10.82;;
48849;SDS011;63210;53.370;6.770;2022-11-20T17:02:35;13.52;;;9.80;;
48849;SDS011;63210;53.370;6.770;2022-11-20T17:05:09;27.73;;;18.85;;
48849;SDS011;63210;53.370;6.770;2022-11-20T17:07:49;18.00;;;12.07;;
48849;SDS011;63210;53.370;6.770;2022-11-20T17:10:20;14.85;;;9.98;;
48849;SDS011;63210;53.370;6.770;2022-11-20T17:12:45;13.60;;;9.70;;
48849;SDS011;63210;53.370;6.770;2022-11-20T17:15:20;13.27;;;6.97;;
48849;SDS011;63210;53.370;6.770;2022-11-20T17:17:59;10.13;;;6.95;;
48849;SDS011;63210;53.370;6.770;2022-11-20T17:20:36;12.27;;;7.03;;
48849;SDS011;63210;53.370;6.770;2022-11-20T17:25:37;9.30;;;6.73;;